sensor_id;sensor_type;location;lat;lon;timestamp;P1;durP1;ratioP1;P2;durP2;ratioP2
8622;SDS011;4349;47.552;8.904;2023-02-08T00:00:26;14.70;;;11.93;;
8622;SDS011;4349;47.552;8.904;2023-02-08T00:02:55;17.70;;;13.33;;
8622;SDS011;4349;47.552;8.904;2023-02-08T00:05:24;15.63;;;12.43;;
8622;SDS011;4349;47.552;8.904;2023-02-08T00:07:52;17.40;;;13.17;;
8622;SDS011;4349;47.552;8.904;2023-02-08T00:10:20;17.87;;;12.40;;
8622;SDS011;4349;47.552;8.904;2023-02-08T00:12:48;18.37;;;13.57;;
8622;SDS011;4349;47.552;8.904;2023-02-08T00:15:17;18.77;;;13.20;;
8622;SDS011;4349;47.552;8.904;2023-02-08T00:17:46;18.43;;;13.03;;
8622;SDS011;4349;47.552;8.904;2023-02-08T00:22:44;16.83;;;12.80;;
8622;SDS011;4349;47.552;8.904;2023-02-08T00:25:12;15.27;;;12.10;;
8622;SDS011;4349;47.552;8.904;2023-02-08T00:27:41;16.20;;;12.03;;
8622;SDS011;4349;47.552;8.904;2023-02-08T00:30:09;16.27;;;13.00;;
8622;SDS011;4349;47.552;8.904;2023-02-08T00:32:37;16.93;;;13.03;;
8622;SDS011;4349;47.552;8.904;2023-02-08T00:35:05;18.23;;;13.07;;
8622;SDS011;4349;47.552;8.904;2023-02-08T00:37:35;16.23;;;13.07;;
8622;SDS011;4349;47.552;8.904;2023-02-08T00:40:04;18.60;;;12.87;;
8622;SDS011;4349;47.552;8.904;2023-02-08T00:42:32;19.77;;;12.90;;
8622;SDS011;4349;47.552;8.904;2023-02-08T00:45:00;17.20;;;12.73;;
8622;SDS011;4349;47.552;8.904;2023-02-08T00:47:27;16.33;;;12.40;;
8622;SDS011;4349;47.552;8.904;2023-02-08T00:49:55;16.10;;;12.47;;
8622;SDS011;4349;47.552;8.904;2023-02-08T00:52:22;16.07;;;12.53;;
8622;SDS011;4349;47.552;8.904;2023-02-08T00:54:50;17.50;;;12.97;;
8622;SDS011;4349;47.552;8.904;2023-02-08T00:57:19;15.20;;;12.60;;
8622;SDS011;4349;47.552;8.904;2023-02-08T00:59:48;18.57;;;12.03;;
8622;SDS011;4349;47.552;8.904;2023-02-08T01:02:16;18.80;;;12.63;;
8622;SDS011;4349;47.552;8.904;2023-02-08T01:04:43;15.57;;;12.20;;
8622;SDS011;4349;47.552;8.904;2023-02-08T01:07:11;18.10;;;13.50;;
8622;SDS011;4349;47.552;8.904;2023-02-08T01:09:39;20.00;;;12.90;;
8622;SDS011;4349;47.552;8.904;2023-02-08T01:12:06;17.40;;;12.57;;
8622;SDS011;4349;47.552;8.904;2023-02-08T01:14:37;15.73;;;12.57;;
8622;SDS011;4349;47.552;8.904;2023-02-08T01:17:05;19.93;;;13.23;;
8622;SDS011;4349;47.552;8.904;2023-02-08T01:19:33;17.43;;;12.43;;
8622;SDS011;4349;47.552;8.904;2023-02-08T01:22:01;18.00;;;13.03;;
8622;SDS011;4349;47.552;8.904;2023-02-08T01:24:31;17.20;;;12.70;;
8622;SDS011;4349;47.552;8.904;2023-02-08T01:26:59;16.20;;;12.37;;
8622;SDS011;4349;47.552;8.904;2023-02-08T01:29:28;17.80;;;13.27;;
8622;SDS011;4349;47.552;8.904;2023-02-08T01:31:59;20.47;;;13.03;;
8622;SDS011;4349;47.552;8.904;2023-02-08T01:34:28;17.30;;;13.00;;
8622;SDS011;4349;47.552;8.904;2023-02-08T01:36:56;17.90;;;13.47;;
8622;SDS011;4349;47.552;8.904;2023-02-08T01:39:24;18.33;;;12.90;;
8622;SDS011;4349;47.552;8.904;2023-02-08T01:41:52;19.17;;;12.87;;
8622;SDS011;4349;47.552;8.904;2023-02-08T01:47:07;17.47;;;13.10;;
8622;SDS011;4349;47.552;8.904;2023-02-08T01:49:35;18.10;;;13.10;;
8622;SDS011;4349;47.552;8.904;2023-02-08T01:52:05;16.23;;;13.07;;
8622;SDS011;4349;47.552;8.904;2023-02-08T01:54:34;17.67;;;13.37;;
8622;SDS011;4349;47.552;8.904;2023-02-08T01:57:03;18.57;;;13.20;;
8622;SDS011;4349;47.552;8.904;2023-02-08T01:59:33;17.80;;;13.23;;
8622;SDS011;4349;47.552;8.904;2023-02-08T02:02:03;20.67;;;13.87;;
8622;SDS011;4349;47.552;8.904;2023-02-08T02:04:33;16.80;;;13.00;;
8622;SDS011;4349;47.552;8.904;2023-02-08T02:07:03;18.73;;;13.83;;
8622;SDS011;4349;47.552;8.904;2023-02-08T02:09:32;17.60;;;13.37;;
8622;SDS011;4349;47.552;8.904;2023-02-08T02:12:03;17.90;;;13.53;;
8622;SDS011;4349;47.552;8.904;2023-02-08T02:14:31;17.90;;;13.07;;
8622;SDS011;4349;47.552;8.904;2023-02-08T02:17:00;17.97;;;13.73;;
8622;SDS011;4349;47.552;8.904;2023-02-08T02:19:31;17.83;;;13.33;;
8622;SDS011;4349;47.552;8.904;2023-02-08T02:22:04;19.17;;;13.67;;
8622;SDS011;4349;47.552;8.904;2023-02-08T02:24:46;19.57;;;14.50;;
8622;SDS011;4349;47.552;8.904;2023-02-08T02:27:24;17.57;;;13.93;;
8622;SDS011;4349;47.552;8.904;2023-02-08T02:32:57;17.60;;;12.80;;
8622;SDS011;4349;47.552;8.904;2023-02-08T02:35:27;19.53;;;14.20;;
8622;SDS011;4349;47.552;8.904;2023-02-08T02:38:02;18.07;;;13.53;;
8622;SDS011;4349;47.552;8.904;2023-02-08T02:40:33;16.97;;;12.93;;
8622;SDS011;4349;47.552;8.904;2023-02-08T02:43:05;18.47;;;13.87;;
8622;SDS011;4349;47.552;8.904;2023-02-08T02:45:54;17.17;;;13.07;;
8622;SDS011;4349;47.552;8.904;2023-02-08T02:48:27;18.63;;;13.37;;
8622;SDS011;4349;47.552;8.904;2023-02-08T02:50:59;19.47;;;14.10;;
8622;SDS011;4349;47.552;8.904;2023-02-08T02:53:33;17.87;;;13.17;;
8622;SDS011;4349;47.552;8.904;2023-02-08T02:56:03;16.67;;;13.07;;
8622;SDS011;4349;47.552;8.904;2023-02-08T02:58:31;16.53;;;12.83;;
8622;SDS011;4349;47.552;8.904;2023-02-08T03:00:59;18.07;;;13.37;;
8622;SDS011;4349;47.552;8.904;2023-02-08T03:03:29;16.03;;;12.80;;
8622;SDS011;4349;47.552;8.904;2023-02-08T03:05:59;17.90;;;13.00;;
8622;SDS011;4349;47.552;8.904;2023-02-08T03:11:17;18.57;;;13.37;;
8622;SDS011;4349;47.552;8.904;2023-02-08T03:16:43;17.10;;;12.70;;
8622;SDS011;4349;47.552;8.904;2023-02-08T03:19:19;24.67;;;13.90;;
8622;SDS011;4349;47.552;8.904;2023-02-08T03:21:51;17.87;;;12.93;;
8622;SDS011;4349;47.552;8.904;2023-02-08T03:24:23;19.60;;;13.07;;
8622;SDS011;4349;47.552;8.904;2023-02-08T03:26:52;16.43;;;13.40;;
8622;SDS011;4349;47.552;8.904;2023-02-08T03:29:25;18.23;;;12.70;;
8622;SDS011;4349;47.552;8.904;2023-02-08T03:31:55;17.90;;;13.80;;
8622;SDS011;4349;47.552;8.904;2023-02-08T03:34:26;18.10;;;13.60;;
8622;SDS011;4349;47.552;8.904;2023-02-08T03:36:56;19.47;;;13.70;;
8622;SDS011;4349;47.552;8.904;2023-02-08T03:39:25;17.17;;;12.67;;
8622;SDS011;4349;47.552;8.904;2023-02-08T03:41:54;18.77;;;13.30;;
8622;SDS011;4349;47.552;8.904;2023-02-08T03:44:25;18.33;;;12.93;;
8622;SDS011;4349;47.552;8.904;2023-02-08T03:46:56;19.07;;;13.83;;
8622;SDS011;4349;47.552;8.904;2023-02-08T03:49:28;18.07;;;12.87;;
8622;SDS011;4349;47.552;8.904;2023-02-08T03:51:58;17.57;;;12.40;;
8622;SDS011;4349;47.552;8.904;2023-02-08T03:54:29;16.17;;;12.63;;
8622;SDS011;4349;47.552;8.904;2023-02-08T03:56:58;16.60;;;12.87;;
8622;SDS011;4349;47.552;8.904;2023-02-08T03:59:31;18.50;;;12.90;;
8622;SDS011;4349;47.552;8.904;2023-02-08T04:02:00;18.60;;;12.67;;
8622;SDS011;4349;47.552;8.904;2023-02-08T04:04:31;18.93;;;12.43;;
8622;SDS011;4349;47.552;8.904;2023-02-08T04:07:00;18.93;;;13.33;;
8622;SDS011;4349;47.552;8.904;2023-02-08T04:09:28;20.40;;;13.33;;
8622;SDS011;4349;47.552;8.904;2023-02-08T04:11:56;16.53;;;12.93;;
8622;SDS011;4349;47.552;8.904;2023-02-08T04:14:23;17.80;;;12.33;;
8622;SDS011;4349;47.552;8.904;2023-02-08T04:16:52;17.50;;;13.17;;
8622;SDS011;4349;47.552;8.904;2023-02-08T04:19:19;15.50;;;12.37;;
8622;SDS011;4349;47.552;8.904;2023-02-08T04:21:48;16.60;;;13.17;;
8622;SDS011;4349;47.552;8.904;2023-02-08T04:24:17;16.70;;;13.20;;
8622;SDS011;4349;47.552;8.904;2023-02-08T04:26:45;20.93;;;13.10;;
8622;SDS011;4349;47.552;8.904;2023-02-08T04:29:13;18.87;;;13.87;;
8622;SDS011;4349;47.552;8.904;2023-02-08T04:31:41;18.80;;;13.23;;
8622;SDS011;4349;47.552;8.904;2023-02-08T04:34:09;19.97;;;13.07;;
8622;SDS011;4349;47.552;8.904;2023-02-08T04:36:37;17.00;;;13.17;;
8622;SDS011;4349;47.552;8.904;2023-02-08T04:39:06;16.97;;;12.77;;
8622;SDS011;4349;47.552;8.904;2023-02-08T04:41:34;17.77;;;13.43;;
8622;SDS011;4349;47.552;8.904;2023-02-08T04:44:01;18.17;;;13.10;;
8622;SDS011;4349;47.552;8.904;2023-02-08T04:46:29;19.37;;;13.00;;
8622;SDS011;4349;47.552;8.904;2023-02-08T04:48:57;20.53;;;13.23;;
8622;SDS011;4349;47.552;8.904;2023-02-08T04:51:25;16.10;;;13.00;;
8622;SDS011;4349;47.552;8.904;2023-02-08T04:53:52;17.70;;;13.77;;
8622;SDS011;4349;47.552;8.904;2023-02-08T04:56:22;17.47;;;12.80;;
8622;SDS011;4349;47.552;8.904;2023-02-08T04:58:51;17.23;;;13.40;;
8622;SDS011;4349;47.552;8.904;2023-02-08T05:01:20;20.63;;;13.53;;
8622;SDS011;4349;47.552;8.904;2023-02-08T05:03:48;19.73;;;13.23;;
8622;SDS011;4349;47.552;8.904;2023-02-08T05:06:15;18.67;;;13.07;;
8622;SDS011;4349;47.552;8.904;2023-02-08T05:08:43;17.27;;;12.73;;
8622;SDS011;4349;47.552;8.904;2023-02-08T05:11:11;21.87;;;14.17;;
8622;SDS011;4349;47.552;8.904;2023-02-08T05:13:41;18.60;;;13.23;;
8622;SDS011;4349;47.552;8.904;2023-02-08T05:16:08;17.00;;;12.97;;
8622;SDS011;4349;47.552;8.904;2023-02-08T05:18:36;17.83;;;13.17;;
8622;SDS011;4349;47.552;8.904;2023-02-08T05:21:05;16.43;;;12.07;;
8622;SDS011;4349;47.552;8.904;2023-02-08T05:23:33;18.47;;;12.70;;
8622;SDS011;4349;47.552;8.904;2023-02-08T05:26:04;19.30;;;12.43;;
8622;SDS011;4349;47.552;8.904;2023-02-08T05:28:31;21.40;;;14.03;;
8622;SDS011;4349;47.552;8.904;2023-02-08T05:31:06;16.33;;;12.57;;
8622;SDS011;4349;47.552;8.904;2023-02-08T05:33:33;20.73;;;14.40;;
8622;SDS011;4349;47.552;8.904;2023-02-08T05:36:02;17.90;;;13.23;;
8622;SDS011;4349;47.552;8.904;2023-02-08T05:38:30;18.60;;;13.07;;
8622;SDS011;4349;47.552;8.904;2023-02-08T05:40:58;20.60;;;13.40;;
8622;SDS011;4349;47.552;8.904;2023-02-08T05:43:27;20.83;;;13.90;;
8622;SDS011;4349;47.552;8.904;2023-02-08T05:45:55;16.67;;;12.90;;
8622;SDS011;4349;47.552;8.904;2023-02-08T05:48:24;17.77;;;13.27;;
8622;SDS011;4349;47.552;8.904;2023-02-08T05:50:51;17.03;;;12.87;;
8622;SDS011;4349;47.552;8.904;2023-02-08T05:53:19;19.83;;;13.60;;
8622;SDS011;4349;47.552;8.904;2023-02-08T05:55:46;18.43;;;13.47;;
8622;SDS011;4349;47.552;8.904;2023-02-08T05:58:14;24.50;;;15.90;;
8622;SDS011;4349;47.552;8.904;2023-02-08T06:00:44;19.57;;;13.37;;
8622;SDS011;4349;47.552;8.904;2023-02-08T06:03:12;19.50;;;13.80;;
8622;SDS011;4349;47.552;8.904;2023-02-08T06:05:43;25.87;;;15.33;;
8622;SDS011;4349;47.552;8.904;2023-02-08T06:08:13;19.13;;;14.00;;
8622;SDS011;4349;47.552;8.904;2023-02-08T06:10:40;22.53;;;13.63;;
8622;SDS011;4349;47.552;8.904;2023-02-08T06:13:10;21.37;;;13.67;;
8622;SDS011;4349;47.552;8.904;2023-02-08T06:15:37;19.13;;;13.93;;
8622;SDS011;4349;47.552;8.904;2023-02-08T06:18:05;19.70;;;13.60;;
8622;SDS011;4349;47.552;8.904;2023-02-08T06:20:34;19.80;;;13.77;;
8622;SDS011;4349;47.552;8.904;2023-02-08T06:23:03;19.13;;;13.20;;
8622;SDS011;4349;47.552;8.904;2023-02-08T06:25:31;20.13;;;13.73;;
8622;SDS011;4349;47.552;8.904;2023-02-08T06:28:00;18.80;;;13.53;;
8622;SDS011;4349;47.552;8.904;2023-02-08T06:30:28;20.00;;;14.27;;
8622;SDS011;4349;47.552;8.904;2023-02-08T06:32:57;19.60;;;14.13;;
8622;SDS011;4349;47.552;8.904;2023-02-08T06:35:24;18.87;;;13.60;;
8622;SDS011;4349;47.552;8.904;2023-02-08T06:37:52;18.43;;;13.47;;
8622;SDS011;4349;47.552;8.904;2023-02-08T06:40:21;18.43;;;13.23;;
8622;SDS011;4349;47.552;8.904;2023-02-08T06:42:49;17.73;;;13.10;;
8622;SDS011;4349;47.552;8.904;2023-02-08T06:45:18;19.33;;;13.37;;
8622;SDS011;4349;47.552;8.904;2023-02-08T06:47:46;18.87;;;12.90;;
8622;SDS011;4349;47.552;8.904;2023-02-08T06:50:13;17.97;;;12.63;;
8622;SDS011;4349;47.552;8.904;2023-02-08T06:52:42;17.67;;;12.03;;
8622;SDS011;4349;47.552;8.904;2023-02-08T06:55:09;20.73;;;13.83;;
8622;SDS011;4349;47.552;8.904;2023-02-08T06:57:38;17.13;;;12.70;;
8622;SDS011;4349;47.552;8.904;2023-02-08T07:00:06;19.57;;;12.93;;
8622;SDS011;4349;47.552;8.904;2023-02-08T07:02:34;18.27;;;12.90;;
8622;SDS011;4349;47.552;8.904;2023-02-08T07:05:01;17.17;;;13.30;;
8622;SDS011;4349;47.552;8.904;2023-02-08T07:07:29;21.53;;;12.87;;
8622;SDS011;4349;47.552;8.904;2023-02-08T07:09:58;20.00;;;13.50;;
8622;SDS011;4349;47.552;8.904;2023-02-08T07:12:26;19.20;;;13.13;;
8622;SDS011;4349;47.552;8.904;2023-02-08T07:14:55;22.23;;;13.50;;
8622;SDS011;4349;47.552;8.904;2023-02-08T07:17:23;18.43;;;13.50;;
8622;SDS011;4349;47.552;8.904;2023-02-08T07:19:52;16.37;;;12.73;;
8622;SDS011;4349;47.552;8.904;2023-02-08T07:22:20;17.97;;;13.07;;
8622;SDS011;4349;47.552;8.904;2023-02-08T07:24:49;20.40;;;14.10;;
8622;SDS011;4349;47.552;8.904;2023-02-08T07:27:18;16.13;;;12.70;;
8622;SDS011;4349;47.552;8.904;2023-02-08T07:29:46;17.17;;;12.97;;
8622;SDS011;4349;47.552;8.904;2023-02-08T07:32:15;20.07;;;12.47;;
8622;SDS011;4349;47.552;8.904;2023-02-08T07:34:42;19.33;;;13.23;;
8622;SDS011;4349;47.552;8.904;2023-02-08T07:37:11;16.77;;;11.80;;
8622;SDS011;4349;47.552;8.904;2023-02-08T07:39:40;17.33;;;12.37;;
8622;SDS011;4349;47.552;8.904;2023-02-08T07:42:08;16.23;;;12.70;;
8622;SDS011;4349;47.552;8.904;2023-02-08T07:44:48;15.87;;;12.27;;
8622;SDS011;4349;47.552;8.904;2023-02-08T07:47:18;15.37;;;11.90;;
8622;SDS011;4349;47.552;8.904;2023-02-08T07:49:45;18.17;;;12.67;;
8622;SDS011;4349;47.552;8.904;2023-02-08T07:52:13;15.37;;;11.93;;
8622;SDS011;4349;47.552;8.904;2023-02-08T07:54:40;17.60;;;13.03;;
8622;SDS011;4349;47.552;8.904;2023-02-08T07:57:07;18.43;;;12.90;;
8622;SDS011;4349;47.552;8.904;2023-02-08T07:59:35;21.23;;;13.53;;
8622;SDS011;4349;47.552;8.904;2023-02-08T08:02:03;19.13;;;12.63;;
8622;SDS011;4349;47.552;8.904;2023-02-08T08:04:31;19.30;;;14.37;;
8622;SDS011;4349;47.552;8.904;2023-02-08T08:06:59;17.07;;;13.37;;
8622;SDS011;4349;47.552;8.904;2023-02-08T08:09:27;19.20;;;12.73;;
8622;SDS011;4349;47.552;8.904;2023-02-08T08:11:55;18.33;;;13.10;;
8622;SDS011;4349;47.552;8.904;2023-02-08T08:14:22;20.00;;;13.57;;
8622;SDS011;4349;47.552;8.904;2023-02-08T08:16:50;17.17;;;12.10;;
8622;SDS011;4349;47.552;8.904;2023-02-08T08:19:18;16.43;;;12.33;;
8622;SDS011;4349;47.552;8.904;2023-02-08T08:21:48;16.83;;;12.70;;
8622;SDS011;4349;47.552;8.904;2023-02-08T08:24:15;16.90;;;12.47;;
8622;SDS011;4349;47.552;8.904;2023-02-08T08:26:44;16.33;;;11.90;;
8622;SDS011;4349;47.552;8.904;2023-02-08T08:29:11;16.83;;;13.20;;
8622;SDS011;4349;47.552;8.904;2023-02-08T08:31:41;18.70;;;12.87;;
8622;SDS011;4349;47.552;8.904;2023-02-08T08:34:09;16.63;;;12.33;;
8622;SDS011;4349;47.552;8.904;2023-02-08T08:36:36;16.80;;;12.63;;
8622;SDS011;4349;47.552;8.904;2023-02-08T08:39:05;17.33;;;12.90;;
8622;SDS011;4349;47.552;8.904;2023-02-08T08:41:33;17.83;;;12.13;;
8622;SDS011;4349;47.552;8.904;2023-02-08T08:44:02;15.70;;;11.97;;
8622;SDS011;4349;47.552;8.904;2023-02-08T08:46:29;16.97;;;12.07;;
8622;SDS011;4349;47.552;8.904;2023-02-08T08:48:57;17.47;;;12.80;;
8622;SDS011;4349;47.552;8.904;2023-02-08T08:51:24;15.07;;;11.33;;
8622;SDS011;4349;47.552;8.904;2023-02-08T08:53:52;16.07;;;11.60;;
8622;SDS011;4349;47.552;8.904;2023-02-08T08:56:21;15.87;;;12.17;;
8622;SDS011;4349;47.552;8.904;2023-02-08T08:58:48;17.57;;;11.97;;
8622;SDS011;4349;47.552;8.904;2023-02-08T09:01:16;18.83;;;12.27;;
8622;SDS011;4349;47.552;8.904;2023-02-08T09:03:44;21.10;;;13.40;;
8622;SDS011;4349;47.552;8.904;2023-02-08T09:06:11;16.57;;;13.17;;
8622;SDS011;4349;47.552;8.904;2023-02-08T09:08:39;15.23;;;12.13;;
8622;SDS011;4349;47.552;8.904;2023-02-08T09:11:08;17.13;;;12.23;;
8622;SDS011;4349;47.552;8.904;2023-02-08T09:13:37;16.20;;;12.70;;
8622;SDS011;4349;47.552;8.904;2023-02-08T09:16:07;17.03;;;12.73;;
8622;SDS011;4349;47.552;8.904;2023-02-08T09:18:36;16.87;;;11.73;;
8622;SDS011;4349;47.552;8.904;2023-02-08T09:21:04;15.53;;;12.03;;
8622;SDS011;4349;47.552;8.904;2023-02-08T09:23:33;16.70;;;11.87;;
8622;SDS011;4349;47.552;8.904;2023-02-08T09:26:01;14.50;;;11.70;;
8622;SDS011;4349;47.552;8.904;2023-02-08T09:28:30;16.50;;;12.27;;
8622;SDS011;4349;47.552;8.904;2023-02-08T09:30:59;17.37;;;12.00;;
8622;SDS011;4349;47.552;8.904;2023-02-08T09:33:34;16.57;;;12.20;;
8622;SDS011;4349;47.552;8.904;2023-02-08T09:36:02;18.53;;;13.00;;
8622;SDS011;4349;47.552;8.904;2023-02-08T09:38:30;18.60;;;12.80;;
8622;SDS011;4349;47.552;8.904;2023-02-08T09:41:02;15.53;;;12.20;;
8622;SDS011;4349;47.552;8.904;2023-02-08T09:43:34;18.00;;;12.67;;
8622;SDS011;4349;47.552;8.904;2023-02-08T09:46:09;17.70;;;12.43;;
8622;SDS011;4349;47.552;8.904;2023-02-08T09:48:40;16.63;;;12.47;;
8622;SDS011;4349;47.552;8.904;2023-02-08T09:51:09;18.13;;;13.17;;
8622;SDS011;4349;47.552;8.904;2023-02-08T09:53:43;16.73;;;12.43;;
8622;SDS011;4349;47.552;8.904;2023-02-08T09:56:13;16.33;;;12.77;;
8622;SDS011;4349;47.552;8.904;2023-02-08T09:58:43;18.67;;;13.43;;
8622;SDS011;4349;47.552;8.904;2023-02-08T10:01:14;21.10;;;13.57;;
8622;SDS011;4349;47.552;8.904;2023-02-08T10:03:44;16.10;;;12.43;;
8622;SDS011;4349;47.552;8.904;2023-02-08T10:06:13;18.00;;;13.80;;
8622;SDS011;4349;47.552;8.904;2023-02-08T10:08:41;18.03;;;13.20;;
8622;SDS011;4349;47.552;8.904;2023-02-08T10:11:19;18.43;;;12.70;;
8622;SDS011;4349;47.552;8.904;2023-02-08T10:13:53;17.60;;;13.10;;
8622;SDS011;4349;47.552;8.904;2023-02-08T10:16:31;20.07;;;13.80;;
8622;SDS011;4349;47.552;8.904;2023-02-08T10:19:05;17.37;;;12.93;;
8622;SDS011;4349;47.552;8.904;2023-02-08T10:21:43;17.03;;;13.20;;
8622;SDS011;4349;47.552;8.904;2023-02-08T10:24:18;19.80;;;13.53;;
8622;SDS011;4349;47.552;8.904;2023-02-08T10:26:48;19.03;;;14.07;;
8622;SDS011;4349;47.552;8.904;2023-02-08T10:29:25;17.90;;;13.40;;
8622;SDS011;4349;47.552;8.904;2023-02-08T10:32:03;17.90;;;13.17;;
8622;SDS011;4349;47.552;8.904;2023-02-08T10:34:34;19.17;;;13.53;;
8622;SDS011;4349;47.552;8.904;2023-02-08T10:37:09;16.37;;;13.30;;
8622;SDS011;4349;47.552;8.904;2023-02-08T10:39:38;18.67;;;13.53;;
8622;SDS011;4349;47.552;8.904;2023-02-08T10:42:09;19.60;;;14.17;;
8622;SDS011;4349;47.552;8.904;2023-02-08T10:44:42;18.10;;;14.00;;
8622;SDS011;4349;47.552;8.904;2023-02-08T10:47:18;18.63;;;14.33;;
8622;SDS011;4349;47.552;8.904;2023-02-08T10:49:49;20.23;;;13.50;;
8622;SDS011;4349;47.552;8.904;2023-02-08T10:52:20;19.40;;;13.43;;
8622;SDS011;4349;47.552;8.904;2023-02-08T10:54:48;18.90;;;13.53;;
8622;SDS011;4349;47.552;8.904;2023-02-08T10:57:17;20.67;;;14.07;;
8622;SDS011;4349;47.552;8.904;2023-02-08T10:59:46;18.43;;;13.77;;
8622;SDS011;4349;47.552;8.904;2023-02-08T11:02:19;19.37;;;14.33;;
8622;SDS011;4349;47.552;8.904;2023-02-08T11:04:56;18.60;;;14.10;;
8622;SDS011;4349;47.552;8.904;2023-02-08T11:07:24;19.67;;;14.23;;
8622;SDS011;4349;47.552;8.904;2023-02-08T11:09:51;20.00;;;14.63;;
8622;SDS011;4349;47.552;8.904;2023-02-08T11:12:20;20.10;;;14.93;;
8622;SDS011;4349;47.552;8.904;2023-02-08T11:14:49;21.10;;;15.07;;
8622;SDS011;4349;47.552;8.904;2023-02-08T11:17:22;19.87;;;14.00;;
8622;SDS011;4349;47.552;8.904;2023-02-08T11:19:52;16.37;;;13.20;;
8622;SDS011;4349;47.552;8.904;2023-02-08T11:22:21;18.33;;;14.07;;
8622;SDS011;4349;47.552;8.904;2023-02-08T11:24:54;19.27;;;14.73;;
8622;SDS011;4349;47.552;8.904;2023-02-08T11:27:30;18.43;;;14.53;;
8622;SDS011;4349;47.552;8.904;2023-02-08T11:30:16;17.13;;;13.97;;
8622;SDS011;4349;47.552;8.904;2023-02-08T11:32:47;18.50;;;13.30;;
8622;SDS011;4349;47.552;8.904;2023-02-08T11:35:18;18.67;;;14.87;;
8622;SDS011;4349;47.552;8.904;2023-02-08T11:37:47;19.17;;;14.57;;
8622;SDS011;4349;47.552;8.904;2023-02-08T11:40:16;18.77;;;13.77;;
8622;SDS011;4349;47.552;8.904;2023-02-08T11:42:45;18.00;;;13.93;;
8622;SDS011;4349;47.552;8.904;2023-02-08T11:45:17;20.47;;;14.60;;
8622;SDS011;4349;47.552;8.904;2023-02-08T11:47:47;19.17;;;14.23;;
8622;SDS011;4349;47.552;8.904;2023-02-08T11:50:20;19.03;;;14.07;;
8622;SDS011;4349;47.552;8.904;2023-02-08T11:52:50;20.10;;;14.47;;
8622;SDS011;4349;47.552;8.904;2023-02-08T11:55:22;19.27;;;14.83;;
8622;SDS011;4349;47.552;8.904;2023-02-08T11:57:51;24.50;;;15.07;;
8622;SDS011;4349;47.552;8.904;2023-02-08T12:00:20;18.43;;;14.30;;
8622;SDS011;4349;47.552;8.904;2023-02-08T12:02:51;17.27;;;13.50;;
8622;SDS011;4349;47.552;8.904;2023-02-08T12:05:21;17.73;;;13.80;;
8622;SDS011;4349;47.552;8.904;2023-02-08T12:07:59;18.63;;;14.63;;
8622;SDS011;4349;47.552;8.904;2023-02-08T12:13:19;19.90;;;15.07;;
8622;SDS011;4349;47.552;8.904;2023-02-08T12:15:54;17.87;;;14.33;;
8622;SDS011;4349;47.552;8.904;2023-02-08T12:18:34;20.20;;;14.03;;
8622;SDS011;4349;47.552;8.904;2023-02-08T12:21:05;22.57;;;14.40;;
8622;SDS011;4349;47.552;8.904;2023-02-08T12:26:32;18.90;;;13.40;;
8622;SDS011;4349;47.552;8.904;2023-02-08T12:29:21;18.93;;;14.27;;
8622;SDS011;4349;47.552;8.904;2023-02-08T12:32:18;19.73;;;13.90;;
8622;SDS011;4349;47.552;8.904;2023-02-08T12:34:55;21.53;;;14.37;;
8622;SDS011;4349;47.552;8.904;2023-02-08T12:37:31;18.10;;;13.67;;
8622;SDS011;4349;47.552;8.904;2023-02-08T12:40:25;16.03;;;13.00;;
8622;SDS011;4349;47.552;8.904;2023-02-08T12:43:15;19.00;;;13.73;;
8622;SDS011;4349;47.552;8.904;2023-02-08T12:45:58;20.53;;;13.97;;
8622;SDS011;4349;47.552;8.904;2023-02-08T12:48:41;18.93;;;14.40;;
8622;SDS011;4349;47.552;8.904;2023-02-08T12:51:15;19.77;;;13.83;;
8622;SDS011;4349;47.552;8.904;2023-02-08T12:53:45;17.43;;;13.37;;
8622;SDS011;4349;47.552;8.904;2023-02-08T12:56:17;18.30;;;13.37;;
8622;SDS011;4349;47.552;8.904;2023-02-08T12:58:46;18.67;;;13.37;;
8622;SDS011;4349;47.552;8.904;2023-02-08T13:01:21;18.30;;;14.30;;
8622;SDS011;4349;47.552;8.904;2023-02-08T13:03:50;17.67;;;13.83;;
8622;SDS011;4349;47.552;8.904;2023-02-08T13:06:22;18.37;;;13.43;;
8622;SDS011;4349;47.552;8.904;2023-02-08T13:08:51;19.23;;;14.67;;
8622;SDS011;4349;47.552;8.904;2023-02-08T13:11:22;19.67;;;14.23;;
8622;SDS011;4349;47.552;8.904;2023-02-08T13:13:53;16.97;;;13.17;;
8622;SDS011;4349;47.552;8.904;2023-02-08T13:16:22;18.30;;;14.33;;
8622;SDS011;4349;47.552;8.904;2023-02-08T13:18:52;16.57;;;13.53;;
8622;SDS011;4349;47.552;8.904;2023-02-08T13:21:23;17.43;;;13.17;;
8622;SDS011;4349;47.552;8.904;2023-02-08T13:23:52;18.00;;;13.57;;
8622;SDS011;4349;47.552;8.904;2023-02-08T13:26:20;20.83;;;14.50;;
8622;SDS011;4349;47.552;8.904;2023-02-08T13:28:52;19.03;;;13.97;;
8622;SDS011;4349;47.552;8.904;2023-02-08T13:31:21;20.47;;;14.53;;
8622;SDS011;4349;47.552;8.904;2023-02-08T13:33:51;21.37;;;14.83;;
8622;SDS011;4349;47.552;8.904;2023-02-08T13:36:29;19.20;;;14.43;;
8622;SDS011;4349;47.552;8.904;2023-02-08T13:38:57;19.93;;;14.63;;
8622;SDS011;4349;47.552;8.904;2023-02-08T13:41:26;22.27;;;15.67;;
8622;SDS011;4349;47.552;8.904;2023-02-08T13:43:55;23.77;;;15.73;;
8622;SDS011;4349;47.552;8.904;2023-02-08T13:46:24;21.70;;;15.20;;
8622;SDS011;4349;47.552;8.904;2023-02-08T13:48:54;20.73;;;14.40;;
8622;SDS011;4349;47.552;8.904;2023-02-08T13:54:11;20.17;;;15.10;;
8622;SDS011;4349;47.552;8.904;2023-02-08T13:56:39;18.93;;;14.60;;
8622;SDS011;4349;47.552;8.904;2023-02-08T13:59:24;21.90;;;14.40;;
8622;SDS011;4349;47.552;8.904;2023-02-08T14:04:41;20.40;;;15.10;;
8622;SDS011;4349;47.552;8.904;2023-02-08T14:07:13;23.57;;;14.97;;
8622;SDS011;4349;47.552;8.904;2023-02-08T14:09:45;19.83;;;14.93;;
8622;SDS011;4349;47.552;8.904;2023-02-08T14:12:18;21.77;;;15.77;;
8622;SDS011;4349;47.552;8.904;2023-02-08T14:17:29;23.93;;;15.30;;
8622;SDS011;4349;47.552;8.904;2023-02-08T14:19:57;18.80;;;14.43;;
8622;SDS011;4349;47.552;8.904;2023-02-08T14:22:33;22.27;;;15.43;;
8622;SDS011;4349;47.552;8.904;2023-02-08T14:25:03;22.43;;;15.97;;
8622;SDS011;4349;47.552;8.904;2023-02-08T14:27:34;22.37;;;15.33;;
8622;SDS011;4349;47.552;8.904;2023-02-08T14:30:04;19.63;;;14.63;;
8622;SDS011;4349;47.552;8.904;2023-02-08T14:32:34;20.23;;;14.30;;
8622;SDS011;4349;47.552;8.904;2023-02-08T14:35:04;20.60;;;15.90;;
8622;SDS011;4349;47.552;8.904;2023-02-08T14:37:33;21.63;;;15.10;;
8622;SDS011;4349;47.552;8.904;2023-02-08T14:42:55;21.80;;;15.53;;
8622;SDS011;4349;47.552;8.904;2023-02-08T14:45:27;20.53;;;14.53;;
8622;SDS011;4349;47.552;8.904;2023-02-08T14:48:13;21.13;;;14.53;;
8622;SDS011;4349;47.552;8.904;2023-02-08T14:50:50;19.87;;;14.57;;
8622;SDS011;4349;47.552;8.904;2023-02-08T14:53:25;19.83;;;14.97;;
8622;SDS011;4349;47.552;8.904;2023-02-08T14:55:57;21.17;;;14.67;;
8622;SDS011;4349;47.552;8.904;2023-02-08T14:58:30;19.60;;;14.50;;
8622;SDS011;4349;47.552;8.904;2023-02-08T15:00:59;22.10;;;14.80;;
8622;SDS011;4349;47.552;8.904;2023-02-08T15:03:30;18.57;;;14.17;;
8622;SDS011;4349;47.552;8.904;2023-02-08T15:08:47;20.17;;;14.07;;
8622;SDS011;4349;47.552;8.904;2023-02-08T15:11:18;19.33;;;14.73;;
8622;SDS011;4349;47.552;8.904;2023-02-08T15:13:48;19.40;;;14.37;;
8622;SDS011;4349;47.552;8.904;2023-02-08T15:16:17;19.07;;;14.93;;
8622;SDS011;4349;47.552;8.904;2023-02-08T15:18:47;20.20;;;14.83;;
8622;SDS011;4349;47.552;8.904;2023-02-08T15:21:17;21.50;;;16.03;;
8622;SDS011;4349;47.552;8.904;2023-02-08T15:23:59;20.77;;;15.80;;
8622;SDS011;4349;47.552;8.904;2023-02-08T15:26:31;19.10;;;14.63;;
8622;SDS011;4349;47.552;8.904;2023-02-08T15:28:59;19.40;;;14.40;;
8622;SDS011;4349;47.552;8.904;2023-02-08T15:31:28;20.70;;;15.37;;
8622;SDS011;4349;47.552;8.904;2023-02-08T15:33:57;17.17;;;14.47;;
8622;SDS011;4349;47.552;8.904;2023-02-08T15:36:27;19.87;;;14.93;;
8622;SDS011;4349;47.552;8.904;2023-02-08T15:38:54;21.53;;;15.43;;